sensor_id;sensor_type;location;lat;lon;timestamp;P1;durP1;ratioP1;P2;durP2;ratioP2
64208;SDS011;50527;52.414;13.226;2023-09-08T00:02:08;4.65;;;2.10;;
64208;SDS011;50527;52.414;13.226;2023-09-08T00:04:34;4.43;;;1.80;;
64208;SDS011;50527;52.414;13.226;2023-09-08T00:07:00;6.32;;;2.10;;
64208;SDS011;50527;52.414;13.226;2023-09-08T00:09:26;4.78;;;1.75;;
64208;SDS011;50527;52.414;13.226;2023-09-08T00:11:51;6.50;;;2.30;;
64208;SDS011;50527;52.414;13.226;2023-09-08T00:14:19;4.00;;;1.98;;
64208;SDS011;50527;52.414;13.226;2023-09-08T00:16:44;3.80;;;2.10;;
64208;SDS011;50527;52.414;13.226;2023-09-08T00:19:10;7.03;;;2.10;;
64208;SDS011;50527;52.414;13.226;2023-09-08T00:21:36;5.07;;;2.20;;
64208;SDS011;50527;52.414;13.226;2023-09-08T00:24:02;3.45;;;1.90;;
64208;SDS011;50527;52.414;13.226;2023-09-08T00:26:29;4.95;;;2.20;;
64208;SDS011;50527;52.414;13.226;2023-09-08T00:28:54;4.90;;;2.20;;
64208;SDS011;50527;52.414;13.226;2023-09-08T00:31:20;5.75;;;2.13;;
64208;SDS011;50527;52.414;13.226;2023-09-08T00:33:45;4.70;;;2.13;;
64208;SDS011;50527;52.414;13.226;2023-09-08T00:36:11;5.25;;;2.42;;
64208;SDS011;50527;52.414;13.226;2023-09-08T00:38:36;3.75;;;2.20;;
64208;SDS011;50527;52.414;13.226;2023-09-08T00:41:03;6.57;;;2.40;;
64208;SDS011;50527;52.414;13.226;2023-09-08T00:43:30;6.25;;;2.10;;
64208;SDS011;50527;52.414;13.226;2023-09-08T00:45:55;5.35;;;2.10;;
64208;SDS011;50527;52.414;13.226;2023-09-08T00:48:23;5.72;;;2.30;;
64208;SDS011;50527;52.414;13.226;2023-09-08T00:50:49;5.20;;;2.17;;
64208;SDS011;50527;52.414;13.226;2023-09-08T00:53:15;4.43;;;2.10;;
64208;SDS011;50527;52.414;13.226;2023-09-08T00:55:40;4.82;;;2.20;;
64208;SDS011;50527;52.414;13.226;2023-09-08T00:58:06;5.57;;;2.50;;
64208;SDS011;50527;52.414;13.226;2023-09-08T01:00:31;5.13;;;2.00;;
64208;SDS011;50527;52.414;13.226;2023-09-08T01:02:57;4.20;;;2.00;;
64208;SDS011;50527;52.414;13.226;2023-09-08T01:05:23;7.82;;;2.50;;
64208;SDS011;50527;52.414;13.226;2023-09-08T01:07:49;5.10;;;2.25;;
64208;SDS011;50527;52.414;13.226;2023-09-08T01:10:15;4.63;;;2.13;;
64208;SDS011;50527;52.414;13.226;2023-09-08T01:12:41;5.55;;;2.40;;
64208;SDS011;50527;52.414;13.226;2023-09-08T01:15:06;5.35;;;2.20;;
64208;SDS011;50527;52.414;13.226;2023-09-08T01:17:32;6.47;;;2.20;;
64208;SDS011;50527;52.414;13.226;2023-09-08T01:20:01;4.05;;;2.20;;
64208;SDS011;50527;52.414;13.226;2023-09-08T01:25:16;4.65;;;2.30;;
64208;SDS011;50527;52.414;13.226;2023-09-08T01:27:46;4.97;;;2.38;;
64208;SDS011;50527;52.414;13.226;2023-09-08T01:30:14;3.47;;;1.98;;
64208;SDS011;50527;52.414;13.226;2023-09-08T01:32:40;4.55;;;2.30;;
64208;SDS011;50527;52.414;13.226;2023-09-08T01:35:07;7.10;;;2.25;;
64208;SDS011;50527;52.414;13.226;2023-09-08T01:37:33;4.90;;;2.10;;
64208;SDS011;50527;52.414;13.226;2023-09-08T01:39:59;6.63;;;2.40;;
64208;SDS011;50527;52.414;13.226;2023-09-08T01:42:24;5.93;;;2.40;;
64208;SDS011;50527;52.414;13.226;2023-09-08T01:44:49;5.88;;;2.22;;
64208;SDS011;50527;52.414;13.226;2023-09-08T01:47:15;5.20;;;2.25;;
64208;SDS011;50527;52.414;13.226;2023-09-08T01:49:41;8.05;;;2.30;;
64208;SDS011;50527;52.414;13.226;2023-09-08T01:52:06;6.47;;;2.30;;
64208;SDS011;50527;52.414;13.226;2023-09-08T01:54:32;4.80;;;2.30;;
64208;SDS011;50527;52.414;13.226;2023-09-08T01:56:58;5.32;;;2.30;;
64208;SDS011;50527;52.414;13.226;2023-09-08T01:59:23;3.72;;;2.17;;
64208;SDS011;50527;52.414;13.226;2023-09-08T02:01:48;4.57;;;2.25;;
64208;SDS011;50527;52.414;13.226;2023-09-08T02:04:14;3.80;;;1.80;;
64208;SDS011;50527;52.414;13.226;2023-09-08T02:06:39;4.10;;;2.08;;
64208;SDS011;50527;52.414;13.226;2023-09-08T02:09:05;4.38;;;2.15;;
64208;SDS011;50527;52.414;13.226;2023-09-08T02:11:33;4.13;;;2.20;;
64208;SDS011;50527;52.414;13.226;2023-09-08T02:13:59;5.47;;;2.45;;
64208;SDS011;50527;52.414;13.226;2023-09-08T02:16:24;5.38;;;2.50;;
64208;SDS011;50527;52.414;13.226;2023-09-08T02:18:50;5.35;;;2.47;;
64208;SDS011;50527;52.414;13.226;2023-09-08T02:21:16;7.10;;;2.08;;
64208;SDS011;50527;52.414;13.226;2023-09-08T02:23:41;4.22;;;2.10;;
64208;SDS011;50527;52.414;13.226;2023-09-08T02:26:06;7.35;;;2.35;;
64208;SDS011;50527;52.414;13.226;2023-09-08T02:28:32;7.10;;;2.40;;
64208;SDS011;50527;52.414;13.226;2023-09-08T02:30:57;6.78;;;2.40;;
64208;SDS011;50527;52.414;13.226;2023-09-08T02:33:23;4.20;;;2.05;;
64208;SDS011;50527;52.414;13.226;2023-09-08T02:35:48;5.30;;;2.10;;
64208;SDS011;50527;52.414;13.226;2023-09-08T02:38:14;6.43;;;2.20;;
64208;SDS011;50527;52.414;13.226;2023-09-08T02:40:39;8.75;;;2.80;;
64208;SDS011;50527;52.414;13.226;2023-09-08T02:43:05;5.00;;;2.35;;
64208;SDS011;50527;52.414;13.226;2023-09-08T02:45:30;4.65;;;2.20;;
64208;SDS011;50527;52.414;13.226;2023-09-08T02:47:56;6.65;;;2.10;;
64208;SDS011;50527;52.414;13.226;2023-09-08T02:50:21;4.28;;;2.17;;
64208;SDS011;50527;52.414;13.226;2023-09-08T02:52:47;6.90;;;2.55;;
64208;SDS011;50527;52.414;13.226;2023-09-08T02:55:13;5.68;;;2.38;;
64208;SDS011;50527;52.414;13.226;2023-09-08T02:57:39;8.32;;;2.53;;
64208;SDS011;50527;52.414;13.226;2023-09-08T03:00:05;4.18;;;1.98;;
64208;SDS011;50527;52.414;13.226;2023-09-08T03:02:32;5.05;;;2.20;;
64208;SDS011;50527;52.414;13.226;2023-09-08T03:04:58;4.57;;;2.25;;
64208;SDS011;50527;52.414;13.226;2023-09-08T03:07:23;6.47;;;2.30;;
64208;SDS011;50527;52.414;13.226;2023-09-08T03:09:49;5.82;;;2.35;;
64208;SDS011;50527;52.414;13.226;2023-09-08T03:12:14;6.35;;;2.45;;
64208;SDS011;50527;52.414;13.226;2023-09-08T03:14:40;4.90;;;2.35;;
64208;SDS011;50527;52.414;13.226;2023-09-08T03:17:05;5.53;;;2.40;;
64208;SDS011;50527;52.414;13.226;2023-09-08T03:19:31;4.38;;;1.90;;
64208;SDS011;50527;52.414;13.226;2023-09-08T03:21:56;7.28;;;2.42;;
64208;SDS011;50527;52.414;13.226;2023-09-08T03:24:22;4.07;;;1.95;;
64208;SDS011;50527;52.414;13.226;2023-09-08T03:26:47;3.85;;;2.10;;
64208;SDS011;50527;52.414;13.226;2023-09-08T03:29:13;5.15;;;2.30;;
64208;SDS011;50527;52.414;13.226;2023-09-08T03:31:38;4.78;;;2.20;;
64208;SDS011;50527;52.414;13.226;2023-09-08T03:34:04;4.25;;;2.00;;
64208;SDS011;50527;52.414;13.226;2023-09-08T03:36:30;6.50;;;2.30;;
64208;SDS011;50527;52.414;13.226;2023-09-08T03:38:56;5.57;;;2.50;;
64208;SDS011;50527;52.414;13.226;2023-09-08T03:41:23;7.80;;;2.20;;
64208;SDS011;50527;52.414;13.226;2023-09-08T03:43:48;4.47;;;2.13;;
64208;SDS011;50527;52.414;13.226;2023-09-08T03:46:14;6.15;;;2.33;;
64208;SDS011;50527;52.414;13.226;2023-09-08T03:48:39;4.97;;;2.38;;
64208;SDS011;50527;52.414;13.226;2023-09-08T03:51:05;4.20;;;2.22;;
64208;SDS011;50527;52.414;13.226;2023-09-08T03:53:30;5.07;;;2.70;;
64208;SDS011;50527;52.414;13.226;2023-09-08T03:55:56;6.30;;;2.67;;
64208;SDS011;50527;52.414;13.226;2023-09-08T03:58:21;4.43;;;1.95;;
64208;SDS011;50527;52.414;13.226;2023-09-08T04:00:47;5.80;;;2.33;;
64208;SDS011;50527;52.414;13.226;2023-09-08T04:03:12;6.75;;;2.17;;
64208;SDS011;50527;52.414;13.226;2023-09-08T04:05:38;4.57;;;2.22;;
64208;SDS011;50527;52.414;13.226;2023-09-08T04:08:04;7.20;;;2.40;;
64208;SDS011;50527;52.414;13.226;2023-09-08T04:10:30;4.60;;;2.42;;
64208;SDS011;50527;52.414;13.226;2023-09-08T04:12:55;5.85;;;2.75;;
64208;SDS011;50527;52.414;13.226;2023-09-08T04:15:21;6.88;;;2.53;;
64208;SDS011;50527;52.414;13.226;2023-09-08T04:17:46;6.78;;;2.30;;
64208;SDS011;50527;52.414;13.226;2023-09-08T04:20:12;4.28;;;2.40;;
64208;SDS011;50527;52.414;13.226;2023-09-08T04:22:39;5.47;;;2.40;;
64208;SDS011;50527;52.414;13.226;2023-09-08T04:25:05;6.25;;;2.60;;
64208;SDS011;50527;52.414;13.226;2023-09-08T04:27:31;4.45;;;2.53;;
64208;SDS011;50527;52.414;13.226;2023-09-08T04:29:57;8.30;;;2.55;;
64208;SDS011;50527;52.414;13.226;2023-09-08T04:32:23;4.18;;;2.20;;
64208;SDS011;50527;52.414;13.226;2023-09-08T04:34:49;5.03;;;2.45;;
64208;SDS011;50527;52.414;13.226;2023-09-08T04:37:14;4.00;;;2.13;;
64208;SDS011;50527;52.414;13.226;2023-09-08T04:39:40;4.68;;;2.22;;
64208;SDS011;50527;52.414;13.226;2023-09-08T04:42:06;4.57;;;2.35;;
64208;SDS011;50527;52.414;13.226;2023-09-08T04:44:31;4.90;;;2.60;;
64208;SDS011;50527;52.414;13.226;2023-09-08T04:46:57;7.05;;;2.70;;
64208;SDS011;50527;52.414;13.226;2023-09-08T04:49:22;8.57;;;2.58;;
64208;SDS011;50527;52.414;13.226;2023-09-08T04:51:47;9.32;;;2.63;;
64208;SDS011;50527;52.414;13.226;2023-09-08T04:54:13;7.07;;;2.47;;
64208;SDS011;50527;52.414;13.226;2023-09-08T04:56:39;4.30;;;2.53;;
64208;SDS011;50527;52.414;13.226;2023-09-08T04:59:05;5.55;;;2.47;;
64208;SDS011;50527;52.414;13.226;2023-09-08T05:01:31;4.30;;;2.10;;
64208;SDS011;50527;52.414;13.226;2023-09-08T05:03:57;5.28;;;2.47;;
64208;SDS011;50527;52.414;13.226;2023-09-08T05:06:24;4.95;;;2.55;;
64208;SDS011;50527;52.414;13.226;2023-09-08T05:08:50;7.70;;;2.70;;
64208;SDS011;50527;52.414;13.226;2023-09-08T05:11:15;7.22;;;2.63;;
64208;SDS011;50527;52.414;13.226;2023-09-08T05:13:42;5.45;;;2.70;;
64208;SDS011;50527;52.414;13.226;2023-09-08T05:16:07;5.45;;;2.42;;
64208;SDS011;50527;52.414;13.226;2023-09-08T05:18:39;6.85;;;2.38;;
64208;SDS011;50527;52.414;13.226;2023-09-08T05:21:05;4.85;;;2.50;;
64208;SDS011;50527;52.414;13.226;2023-09-08T05:23:31;7.13;;;2.45;;
64208;SDS011;50527;52.414;13.226;2023-09-08T05:25:57;10.48;;;2.70;;
64208;SDS011;50527;52.414;13.226;2023-09-08T05:28:22;8.57;;;2.88;;
64208;SDS011;50527;52.414;13.226;2023-09-08T05:30:52;4.97;;;2.65;;
64208;SDS011;50527;52.414;13.226;2023-09-08T05:33:18;5.40;;;2.45;;
64208;SDS011;50527;52.414;13.226;2023-09-08T05:35:44;5.57;;;2.53;;
64208;SDS011;50527;52.414;13.226;2023-09-08T05:38:10;5.13;;;2.58;;
64208;SDS011;50527;52.414;13.226;2023-09-08T05:40:36;6.32;;;2.60;;
64208;SDS011;50527;52.414;13.226;2023-09-08T05:43:01;4.35;;;2.55;;
64208;SDS011;50527;52.414;13.226;2023-09-08T05:45:27;6.95;;;2.30;;
64208;SDS011;50527;52.414;13.226;2023-09-08T05:47:52;6.13;;;2.30;;
64208;SDS011;50527;52.414;13.226;2023-09-08T05:50:18;6.10;;;2.80;;
64208;SDS011;50527;52.414;13.226;2023-09-08T05:52:44;5.93;;;2.65;;
64208;SDS011;50527;52.414;13.226;2023-09-08T05:55:09;8.73;;;2.70;;
64208;SDS011;50527;52.414;13.226;2023-09-08T05:57:35;4.18;;;2.15;;
64208;SDS011;50527;52.414;13.226;2023-09-08T06:00:02;7.53;;;2.38;;
64208;SDS011;50527;52.414;13.226;2023-09-08T06:02:28;5.53;;;2.42;;
64208;SDS011;50527;52.414;13.226;2023-09-08T06:04:53;3.88;;;2.47;;
64208;SDS011;50527;52.414;13.226;2023-09-08T06:07:19;6.22;;;2.25;;
64208;SDS011;50527;52.414;13.226;2023-09-08T06:09:44;9.77;;;2.67;;
64208;SDS011;50527;52.414;13.226;2023-09-08T06:12:10;9.15;;;2.80;;
64208;SDS011;50527;52.414;13.226;2023-09-08T06:14:35;6.05;;;2.40;;
64208;SDS011;50527;52.414;13.226;2023-09-08T06:17:00;5.03;;;2.17;;
64208;SDS011;50527;52.414;13.226;2023-09-08T06:19:26;4.53;;;2.50;;
64208;SDS011;50527;52.414;13.226;2023-09-08T06:21:51;11.07;;;2.90;;
64208;SDS011;50527;52.414;13.226;2023-09-08T06:24:17;7.97;;;2.55;;
64208;SDS011;50527;52.414;13.226;2023-09-08T06:26:42;5.18;;;2.58;;
64208;SDS011;50527;52.414;13.226;2023-09-08T06:29:08;5.55;;;2.80;;
64208;SDS011;50527;52.414;13.226;2023-09-08T06:31:34;7.05;;;2.40;;
64208;SDS011;50527;52.414;13.226;2023-09-08T06:33:59;9.23;;;2.97;;
64208;SDS011;50527;52.414;13.226;2023-09-08T06:36:24;10.18;;;3.05;;
64208;SDS011;50527;52.414;13.226;2023-09-08T06:38:50;5.57;;;2.60;;
64208;SDS011;50527;52.414;13.226;2023-09-08T06:41:15;6.72;;;2.55;;
64208;SDS011;50527;52.414;13.226;2023-09-08T06:43:42;5.68;;;2.78;;
64208;SDS011;50527;52.414;13.226;2023-09-08T06:46:09;7.70;;;2.78;;
64208;SDS011;50527;52.414;13.226;2023-09-08T06:48:34;8.02;;;2.67;;
64208;SDS011;50527;52.414;13.226;2023-09-08T06:51:00;8.40;;;2.50;;
64208;SDS011;50527;52.414;13.226;2023-09-08T06:53:25;5.65;;;2.20;;
64208;SDS011;50527;52.414;13.226;2023-09-08T06:55:51;5.25;;;2.40;;
64208;SDS011;50527;52.414;13.226;2023-09-08T06:58:16;6.30;;;2.40;;
64208;SDS011;50527;52.414;13.226;2023-09-08T07:00:42;8.52;;;2.50;;
64208;SDS011;50527;52.414;13.226;2023-09-08T07:03:08;5.15;;;2.22;;
64208;SDS011;50527;52.414;13.226;2023-09-08T07:05:34;6.65;;;2.58;;
64208;SDS011;50527;52.414;13.226;2023-09-08T07:07:59;5.72;;;2.35;;
64208;SDS011;50527;52.414;13.226;2023-09-08T07:10:25;7.15;;;2.80;;
64208;SDS011;50527;52.414;13.226;2023-09-08T07:12:50;7.25;;;2.75;;
64208;SDS011;50527;52.414;13.226;2023-09-08T07:15:16;5.47;;;2.30;;
64208;SDS011;50527;52.414;13.226;2023-09-08T07:17:41;5.45;;;2.63;;
64208;SDS011;50527;52.414;13.226;2023-09-08T07:20:07;4.68;;;2.10;;
64208;SDS011;50527;52.414;13.226;2023-09-08T07:22:33;7.53;;;2.40;;
64208;SDS011;50527;52.414;13.226;2023-09-08T07:24:58;7.38;;;2.28;;
64208;SDS011;50527;52.414;13.226;2023-09-08T07:27:24;4.70;;;2.25;;
64208;SDS011;50527;52.414;13.226;2023-09-08T07:29:49;9.93;;;2.63;;
64208;SDS011;50527;52.414;13.226;2023-09-08T07:32:18;8.88;;;2.40;;
64208;SDS011;50527;52.414;13.226;2023-09-08T07:34:43;6.57;;;2.00;;
64208;SDS011;50527;52.414;13.226;2023-09-08T07:37:09;8.68;;;1.90;;
64208;SDS011;50527;52.414;13.226;2023-09-08T07:39:35;5.75;;;2.05;;
64208;SDS011;50527;52.414;13.226;2023-09-08T07:42:00;5.05;;;2.13;;
64208;SDS011;50527;52.414;13.226;2023-09-08T07:44:26;6.15;;;1.90;;
64208;SDS011;50527;52.414;13.226;2023-09-08T07:46:52;4.55;;;2.22;;
64208;SDS011;50527;52.414;13.226;2023-09-08T07:49:20;7.20;;;2.20;;
64208;SDS011;50527;52.414;13.226;2023-09-08T07:51:46;4.72;;;2.20;;
64208;SDS011;50527;52.414;13.226;2023-09-08T07:54:12;4.38;;;2.03;;
64208;SDS011;50527;52.414;13.226;2023-09-08T07:56:38;3.92;;;2.05;;
64208;SDS011;50527;52.414;13.226;2023-09-08T07:59:05;6.40;;;2.33;;
64208;SDS011;50527;52.414;13.226;2023-09-08T08:01:31;4.82;;;2.13;;
64208;SDS011;50527;52.414;13.226;2023-09-08T08:03:57;4.22;;;1.80;;
64208;SDS011;50527;52.414;13.226;2023-09-08T08:06:22;4.20;;;2.08;;
64208;SDS011;50527;52.414;13.226;2023-09-08T08:08:48;5.38;;;2.00;;
64208;SDS011;50527;52.414;13.226;2023-09-08T08:11:14;3.65;;;1.70;;
64208;SDS011;50527;52.414;13.226;2023-09-08T08:13:42;4.85;;;2.03;;
64208;SDS011;50527;52.414;13.226;2023-09-08T08:16:08;5.65;;;1.90;;
64208;SDS011;50527;52.414;13.226;2023-09-08T08:18:33;4.25;;;1.80;;
64208;SDS011;50527;52.414;13.226;2023-09-08T08:20:59;7.63;;;1.95;;
64208;SDS011;50527;52.414;13.226;2023-09-08T08:23:25;4.80;;;1.83;;
64208;SDS011;50527;52.414;13.226;2023-09-08T08:25:51;3.17;;;1.65;;
64208;SDS011;50527;52.414;13.226;2023-09-08T08:28:17;6.07;;;1.65;;
64208;SDS011;50527;52.414;13.226;2023-09-08T08:30:42;5.03;;;1.80;;
64208;SDS011;50527;52.414;13.226;2023-09-08T08:33:08;3.20;;;1.70;;
64208;SDS011;50527;52.414;13.226;2023-09-08T08:35:33;2.65;;;1.70;;
64208;SDS011;50527;52.414;13.226;2023-09-08T08:37:59;5.03;;;1.70;;
64208;SDS011;50527;52.414;13.226;2023-09-08T08:40:27;3.20;;;1.45;;
64208;SDS011;50527;52.414;13.226;2023-09-08T08:42:54;5.15;;;2.10;;
64208;SDS011;50527;52.414;13.226;2023-09-08T08:45:24;4.82;;;1.70;;
64208;SDS011;50527;52.414;13.226;2023-09-08T08:47:50;4.45;;;1.70;;
64208;SDS011;50527;52.414;13.226;2023-09-08T08:50:17;5.03;;;1.73;;
64208;SDS011;50527;52.414;13.226;2023-09-08T08:52:42;4.55;;;1.83;;
64208;SDS011;50527;52.414;13.226;2023-09-08T08:55:09;5.45;;;1.77;;
64208;SDS011;50527;52.414;13.226;2023-09-08T08:57:38;6.47;;;1.70;;
64208;SDS011;50527;52.414;13.226;2023-09-08T09:00:08;3.88;;;1.50;;
64208;SDS011;50527;52.414;13.226;2023-09-08T09:02:38;3.38;;;1.73;;
64208;SDS011;50527;52.414;13.226;2023-09-08T09:05:06;2.75;;;1.60;;
64208;SDS011;50527;52.414;13.226;2023-09-08T09:07:35;5.45;;;1.40;;
64208;SDS011;50527;52.414;13.226;2023-09-08T09:10:02;4.35;;;1.60;;
64208;SDS011;50527;52.414;13.226;2023-09-08T09:12:28;5.97;;;1.92;;
64208;SDS011;50527;52.414;13.226;2023-09-08T09:14:54;4.03;;;1.67;;
64208;SDS011;50527;52.414;13.226;2023-09-08T09:17:19;5.25;;;1.52;;
64208;SDS011;50527;52.414;13.226;2023-09-08T09:19:45;2.45;;;1.33;;
64208;SDS011;50527;52.414;13.226;2023-09-08T09:22:10;3.47;;;1.42;;
64208;SDS011;50527;52.414;13.226;2023-09-08T09:24:39;4.30;;;1.60;;
64208;SDS011;50527;52.414;13.226;2023-09-08T09:27:08;5.22;;;1.50;;
64208;SDS011;50527;52.414;13.226;2023-09-08T09:29:43;6.25;;;1.58;;
64208;SDS011;50527;52.414;13.226;2023-09-08T09:32:13;5.10;;;1.55;;
64208;SDS011;50527;52.414;13.226;2023-09-08T09:34:48;3.08;;;1.20;;
64208;SDS011;50527;52.414;13.226;2023-09-08T09:37:15;7.13;;;1.50;;
64208;SDS011;50527;52.414;13.226;2023-09-08T09:39:41;3.00;;;1.38;;
64208;SDS011;50527;52.414;13.226;2023-09-08T09:42:06;3.97;;;1.27;;
64208;SDS011;50527;52.414;13.226;2023-09-08T09:44:32;1.83;;;1.08;;
64208;SDS011;50527;52.414;13.226;2023-09-08T09:46:57;3.17;;;1.20;;
64208;SDS011;50527;52.414;13.226;2023-09-08T09:49:25;3.83;;;1.17;;
64208;SDS011;50527;52.414;13.226;2023-09-08T09:51:56;3.08;;;1.10;;
64208;SDS011;50527;52.414;13.226;2023-09-08T09:54:23;2.10;;;1.20;;
64208;SDS011;50527;52.414;13.226;2023-09-08T09:56:49;2.35;;;1.20;;
64208;SDS011;50527;52.414;13.226;2023-09-08T09:59:16;3.50;;;1.20;;
64208;SDS011;50527;52.414;13.226;2023-09-08T10:01:42;3.70;;;1.30;;
64208;SDS011;50527;52.414;13.226;2023-09-08T10:04:08;4.88;;;1.30;;
64208;SDS011;50527;52.414;13.226;2023-09-08T10:06:34;1.77;;;1.10;;
64208;SDS011;50527;52.414;13.226;2023-09-08T10:09:01;5.40;;;1.20;;
64208;SDS011;50527;52.414;13.226;2023-09-08T10:11:34;2.10;;;1.00;;
64208;SDS011;50527;52.414;13.226;2023-09-08T10:14:06;3.92;;;1.27;;
64208;SDS011;50527;52.414;13.226;2023-09-08T10:16:36;2.80;;;1.05;;
64208;SDS011;50527;52.414;13.226;2023-09-08T10:19:03;2.65;;;1.17;;
64208;SDS011;50527;52.414;13.226;2023-09-08T10:21:33;10.90;;;1.70;;
64208;SDS011;50527;52.414;13.226;2023-09-08T10:26:37;2.55;;;1.25;;
64208;SDS011;50527;52.414;13.226;2023-09-08T10:29:05;3.33;;;1.40;;
64208;SDS011;50527;52.414;13.226;2023-09-08T10:31:32;4.35;;;1.40;;
64208;SDS011;50527;52.414;13.226;2023-09-08T10:33:58;6.78;;;1.60;;
64208;SDS011;50527;52.414;13.226;2023-09-08T10:36:24;3.10;;;1.40;;
64208;SDS011;50527;52.414;13.226;2023-09-08T10:38:49;4.05;;;1.50;;
64208;SDS011;50527;52.414;13.226;2023-09-08T10:43:45;3.47;;;1.45;;
64208;SDS011;50527;52.414;13.226;2023-09-08T10:46:22;3.22;;;1.25;;
64208;SDS011;50527;52.414;13.226;2023-09-08T10:48:49;3.95;;;1.40;;
64208;SDS011;50527;52.414;13.226;2023-09-08T10:51:15;4.45;;;2.30;;
64208;SDS011;50527;52.414;13.226;2023-09-08T10:53:42;3.97;;;1.30;;
64208;SDS011;50527;52.414;13.226;2023-09-08T10:56:07;5.90;;;1.40;;
64208;SDS011;50527;52.414;13.226;2023-09-08T10:58:34;3.05;;;1.25;;
64208;SDS011;50527;52.414;13.226;2023-09-08T11:01:03;3.60;;;1.70;;
64208;SDS011;50527;52.414;13.226;2023-09-08T11:06:07;3.55;;;1.25;;
64208;SDS011;50527;52.414;13.226;2023-09-08T11:08:33;2.25;;;1.20;;
64208;SDS011;50527;52.414;13.226;2023-09-08T11:11:00;2.83;;;1.23;;
64208;SDS011;50527;52.414;13.226;2023-09-08T11:13:27;7.13;;;1.50;;
64208;SDS011;50527;52.414;13.226;2023-09-08T11:15:55;5.05;;;1.55;;
64208;SDS011;50527;52.414;13.226;2023-09-08T11:18:28;6.18;;;1.60;;
64208;SDS011;50527;52.414;13.226;2023-09-08T11:20:58;2.33;;;1.20;;
64208;SDS011;50527;52.414;13.226;2023-09-08T11:23:24;2.08;;;1.20;;
64208;SDS011;50527;52.414;13.226;2023-09-08T11:25:50;5.57;;;1.40;;
64208;SDS011;50527;52.414;13.226;2023-09-08T11:28:21;2.55;;;1.10;;
64208;SDS011;50527;52.414;13.226;2023-09-08T11:30:47;2.80;;;1.20;;
64208;SDS011;50527;52.414;13.226;2023-09-08T11:33:14;1.90;;;1.00;;
64208;SDS011;50527;52.414;13.226;2023-09-08T11:35:40;5.47;;;1.25;;
64208;SDS011;50527;52.414;13.226;2023-09-08T11:38:07;3.75;;;1.10;;
64208;SDS011;50527;52.414;13.226;2023-09-08T11:40:35;3.78;;;1.42;;
64208;SDS011;50527;52.414;13.226;2023-09-08T11:43:02;2.40;;;1.30;;
64208;SDS011;50527;52.414;13.226;2023-09-08T11:45:28;2.53;;;1.20;;
64208;SDS011;50527;52.414;13.226;2023-09-08T11:47:55;2.80;;;1.27;;
64208;SDS011;50527;52.414;13.226;2023-09-08T11:50:21;2.67;;;1.20;;
64208;SDS011;50527;52.414;13.226;2023-09-08T11:52:48;2.95;;;1.48;;
64208;SDS011;50527;52.414;13.226;2023-09-08T11:55:16;2.47;;;1.08;;
64208;SDS011;50527;52.414;13.226;2023-09-08T11:57:44;3.83;;;1.35;;
64208;SDS011;50527;52.414;13.226;2023-09-08T12:00:12;3.58;;;1.33;;
64208;SDS011;50527;52.414;13.226;2023-09-08T12:02:42;3.13;;;1.20;;
64208;SDS011;50527;52.414;13.226;2023-09-08T12:05:12;6.72;;;1.27;;
64208;SDS011;50527;52.414;13.226;2023-09-08T12:07:44;5.95;;;1.50;;
64208;SDS011;50527;52.414;13.226;2023-09-08T12:10:10;3.30;;;1.13;;
64208;SDS011;50527;52.414;13.226;2023-09-08T12:12:43;3.80;;;1.35;;
64208;SDS011;50527;52.414;13.226;2023-09-08T12:15:33;5.30;;;1.30;;
64208;SDS011;50527;52.414;13.226;2023-09-08T12:18:06;4.22;;;1.40;;
64208;SDS011;50527;52.414;13.226;2023-09-08T12:20:36;2.55;;;1.20;;
64208;SDS011;50527;52.414;13.226;2023-09-08T12:23:04;1.88;;;1.10;;
64208;SDS011;50527;52.414;13.226;2023-09-08T12:25:32;3.10;;;1.20;;
64208;SDS011;50527;52.414;13.226;2023-09-08T12:27:58;2.53;;;1.27;;
64208;SDS011;50527;52.414;13.226;2023-09-08T12:30:24;2.88;;;1.25;;
64208;SDS011;50527;52.414;13.226;2023-09-08T12:32:58;2.28;;;1.00;;
64208;SDS011;50527;52.414;13.226;2023-09-08T12:35:24;3.00;;;1.30;;
64208;SDS011;50527;52.414;13.226;2023-09-08T12:37:57;3.42;;;1.27;;
64208;SDS011;50527;52.414;13.226;2023-09-08T12:40:24;3.95;;;1.60;;
64208;SDS011;50527;52.414;13.226;2023-09-08T12:42:50;4.15;;;1.25;;
64208;SDS011;50527;52.414;13.226;2023-09-08T12:45:15;2.80;;;1.25;;
64208;SDS011;50527;52.414;13.226;2023-09-08T12:47:41;3.83;;;1.20;;
64208;SDS011;50527;52.414;13.226;2023-09-08T12:50:08;5.60;;;1.40;;
64208;SDS011;50527;52.414;13.226;2023-09-08T12:52:34;3.63;;;1.20;;
64208;SDS011;50527;52.414;13.226;2023-09-08T12:55:00;2.47;;;1.23;;
64208;SDS011;50527;52.414;13.226;2023-09-08T12:57:25;3.30;;;1.05;;
64208;SDS011;50527;52.414;13.226;2023-09-08T12:59:51;3.58;;;1.35;;
64208;SDS011;50527;52.414;13.226;2023-09-08T13:02:16;4.38;;;1.35;;
64208;SDS011;50527;52.414;13.226;2023-09-08T13:04:42;1.67;;;1.20;;
64208;SDS011;50527;52.414;13.226;2023-09-08T13:07:13;3.10;;;1.13;;
64208;SDS011;50527;52.414;13.226;2023-09-08T13:09:42;5.95;;;1.67;;
64208;SDS011;50527;52.414;13.226;2023-09-08T13:12:07;2.17;;;1.20;;
64208;SDS011;50527;52.414;13.226;2023-09-08T13:14:38;3.30;;;1.38;;
64208;SDS011;50527;52.414;13.226;2023-09-08T13:17:04;3.80;;;1.70;;
64208;SDS011;50527;52.414;13.226;2023-09-08T13:19:29;3.80;;;1.23;;
64208;SDS011;50527;52.414;13.226;2023-09-08T13:21:55;4.25;;;1.42;;
64208;SDS011;50527;52.414;13.226;2023-09-08T13:24:21;9.27;;;1.70;;
64208;SDS011;50527;52.414;13.226;2023-09-08T13:26:47;4.13;;;1.30;;
64208;SDS011;50527;52.414;13.226;2023-09-08T13:29:12;3.65;;;1.30;;
64208;SDS011;50527;52.414;13.226;2023-09-08T13:31:38;5.88;;;1.55;;
64208;SDS011;50527;52.414;13.226;2023-09-08T13:34:03;6.05;;;1.48;;
64208;SDS011;50527;52.414;13.226;2023-09-08T13:36:29;3.20;;;1.25;;
64208;SDS011;50527;52.414;13.226;2023-09-08T13:38:55;4.05;;;1.30;;
64208;SDS011;50527;52.414;13.226;2023-09-08T13:41:20;5.05;;;1.60;;
64208;SDS011;50527;52.414;13.226;2023-09-08T13:43:46;6.38;;;1.50;;
64208;SDS011;50527;52.414;13.226;2023-09-08T13:46:11;2.78;;;1.30;;
64208;SDS011;50527;52.414;13.226;2023-09-08T13:48:37;4.03;;;1.50;;
64208;SDS011;50527;52.414;13.226;2023-09-08T13:51:02;6.85;;;1.40;;
64208;SDS011;50527;52.414;13.226;2023-09-08T13:53:28;3.40;;;1.45;;
64208;SDS011;50527;52.414;13.226;2023-09-08T13:55:55;3.97;;;1.38;;
64208;SDS011;50527;52.414;13.226;2023-09-08T13:58:21;2.08;;;1.25;;
64208;SDS011;50527;52.414;13.226;2023-09-08T14:00:47;2.85;;;1.30;;
64208;SDS011;50527;52.414;13.226;2023-09-08T14:03:14;5.95;;;1.50;;
64208;SDS011;50527;52.414;13.226;2023-09-08T14:05:39;2.90;;;1.35;;
64208;SDS011;50527;52.414;13.226;2023-09-08T14:08:05;2.47;;;1.30;;
64208;SDS011;50527;52.414;13.226;2023-09-08T14:10:30;2.47;;;1.40;;
64208;SDS011;50527;52.414;13.226;2023-09-08T14:12:56;5.85;;;1.30;;
64208;SDS011;50527;52.414;13.226;2023-09-08T14:15:21;2.28;;;1.38;;
64208;SDS011;50527;52.414;13.226;2023-09-08T14:17:47;8.27;;;2.00;;
64208;SDS011;50527;52.414;13.226;2023-09-08T14:20:12;3.22;;;1.30;;
64208;SDS011;50527;52.414;13.226;2023-09-08T14:22:38;3.33;;;1.60;;
64208;SDS011;50527;52.414;13.226;2023-09-08T14:25:04;3.97;;;1.45;;
64208;SDS011;50527;52.414;13.226;2023-09-08T14:27:30;4.85;;;1.35;;
64208;SDS011;50527;52.414;13.226;2023-09-08T14:29:55;3.00;;;1.50;;
64208;SDS011;50527;52.414;13.226;2023-09-08T14:32:21;4.70;;;1.42;;
64208;SDS011;50527;52.414;13.226;2023-09-08T14:34:48;2.33;;;1.27;;
64208;SDS011;50527;52.414;13.226;2023-09-08T14:37:13;2.75;;;1.25;;
64208;SDS011;50527;52.414;13.226;2023-09-08T14:39:40;3.83;;;1.35;;